Flight Track Log - Related Links

Times and Time Zones

All times are in EST time to prevent confusion due to time zone crossing. See the RPA4911 flight status page for this flight to view local times or setup timezone preferences in your user account.

Time Position Orientation Groundspeed Altitude Reporting Facility
EST Latitude Longitude Course Direction KTS MPH feet Rate Location/Type
Sun 08:10:54 AM 42.7233 -73.8025 215° Southwest 196 226 1,600  Level Boston Center
Sun 08:11:24 AM 42.6997 -73.8031 181° South 198 228 2,700 2,421 Climbing Boston Center
Sun 08:11:51 AM 42.6767 -73.8139 199° South 196 226 3,900 2,966 Climbing Boston Center
Sun 08:12:51 AM 42.6189 -73.8433 201° Southwest 218 251 7,000 3,174 Climbing Boston Center
Sun 08:13:00 AM 42.4929 -73.8490 196° South  Level Estimated
Sun 08:13:52 AM 42.5664 -73.8686 200° South 203 234 10,300  Level Boston Center
Sun 08:14:00 AM 42.4192 -73.9097 211° Southwest  Level FlightAware Approximate
Sun 08:14:53 AM 42.5111 -73.8953 200° South 211 243 11,900  Level Boston Center
Sun 08:15:00 AM 42.3336 -73.9229 198° South  Level Estimated
Sun 08:15:53 AM 42.4333 -73.9358 201° Southwest 276 318 11,900  Level Boston Center
Sun 08:16:00 AM 42.2627 -73.9892 215° Southwest  Level FlightAware Approximate
Sun 08:16:54 AM 42.3581 -73.9714 199° South 284 327 13,200  Level Boston Center
Sun 08:17:55 AM 42.2833 -74.0083 200° South 284 327 13,900 347 Climbing Boston Center
Sun 08:18:55 AM 42.2042 -74.0461 199° South 298 343 13,900 50 Level Boston Center
Sun 08:19:56 AM 42.1264 -74.0806 198° South 299 344 14,000 49 Climbing Boston Center
Sun 08:20:57 AM 42.0475 -74.1150 198° South 298 343 14,000  Level Boston Center
Sun 08:21:57 AM 41.9625 -74.1528 198° South 300 345 14,000  Level Boston Center
Sun 08:22:58 AM 41.8819 -74.1875 198° South 303 349 14,000  Level Boston Center
Sun 08:23:59 AM 41.8019 -74.2233 198° South 304 350 14,000 -744 Level Boston Center
Sun 08:24:59 AM 41.7219 -74.2575 198° South 303 349 12,500 -1,438 Descending Boston Center
Sun 08:26:00 AM 41.6458 -74.2903 198° South 291 335 11,100 -1,289 Descending Boston Center
Sun 08:27:00 AM 41.5800 -74.3186 198° South 247 284 9,900 -1,240 Descending Boston Center
Sun 08:28:01 AM 41.5111 -74.3497 199° South 245 282 8,600 -1,230 Descending Boston Center
Sun 08:29:02 AM 41.4464 -74.3750 196° South 242 278 7,400 -793 Descending Boston Center
Sun 08:30:02 AM 41.3842 -74.4039 199° South 237 273 7,000 -192 Descending Boston Center
Sun 08:31:07 AM 41.3167 -74.4333 198° South 237 273 7,000  Level New York TRACON
Sun 08:32:00 AM 41.2500 -74.4000 159° South 271 312 7,000 -637 Level New York TRACON
Sun 08:33:00 AM 41.2000 -74.3500 143° Southeast 267 307 5,800 -952 Descending New York TRACON
Sun 08:34:06 AM 41.1333 -74.2833 143° Southeast 264 304 5,000 -400 Descending New York TRACON
Sun 08:35:00 AM 41.0667 -74.2500 159° South 258 297 5,000 -50 Level New York TRACON
Sun 08:36:06 AM 41.0000 -74.1833 143° Southeast 264 304 4,900 -500 Descending New York TRACON
Sun 08:37:00 AM 40.9500 -74.1500 153° Southeast 252 290 4,000 -950 Descending New York TRACON
Sun 08:38:06 AM 40.8833 -74.1000 150° Southeast 250 288 3,000 -667 Descending New York TRACON
Sun 08:39:06 AM 40.8167 -74.0833 169° South 240 276 2,600 -714 Descending New York TRACON
Sun 08:40:12 AM 40.7500 -74.1333 210° Southwest 231 266 1,500 -1,096 Descending New York TRACON
Sun 08:41:01 AM 40.7167 -74.1500 201° Southwest 148 170 500 -1,224 Descending New York TRACON

Login

Don't have an account? Register now (free) for customized features, flight alerts, and more!